Terminal Aerodrome Forecast
Issued by NWS

Home | Current Version | Previous Version | Graphics & Text | Print | Product List | Glossary On
Versions: 1 2 3 4 5 6 7 8 9 10 11 12 13 14 15 16 17 18 19 20 21
000
FTUS43 KBIS 271100
TAFMOT
TAF
KMOT 271120Z 2712/2812 33010KT P6SM SKC
     FM271700 01015G22KT P6SM SCT080
     FM280300 36017G23KT P6SM BKN040 OVC080
     FM281000 01014KT P6SM BKN025 OVC040=

USA.gov is the U.S. government's official web portal to all federal, state and local government web resources and services.